createdAt,value
2017-07-20T00:00:54.282Z,93.33
2017-07-20T00:01:48.849Z,92.94
2017-07-20T00:02:48.736Z,93.14
2017-07-20T00:03:48.778Z,92.76
2017-07-20T00:04:49.146Z,93.14
2017-07-20T00:05:55.870Z,93.43
2017-07-20T00:06:48.631Z,93.04
2017-07-20T00:07:49.099Z,93.14
2017-07-20T00:08:48.785Z,91.79
2017-07-20T00:09:48.783Z,93.14
2017-07-20T00:10:55.164Z,93.67
2017-07-20T00:11:49.145Z,93.19
2017-07-20T00:12:48.476Z,93.48
2017-07-20T00:13:48.468Z,92.52
2017-07-20T00:14:48.841Z,93.38
2017-07-20T00:15:54.886Z,93.09
2017-07-20T00:16:49.273Z,93.96
2017-07-20T00:17:48.819Z,93.72
2017-07-20T00:18:48.484Z,92.47
2017-07-20T00:19:48.484Z,92.56
2017-07-20T00:20:54.927Z,93.04
2017-07-20T00:21:48.857Z,93.38
2017-07-20T00:22:48.500Z,93.14
2017-07-20T00:23:48.512Z,93.33
2017-07-20T00:24:48.836Z,94.1
2017-07-20T00:25:54.716Z,94.29
2017-07-20T00:26:48.512Z,94.01
2017-07-20T00:27:50.603Z,92.66
2017-07-20T00:28:52.358Z,92.85
2017-07-20T00:29:50.327Z,93.33
2017-07-20T00:30:57.106Z,94.2
2017-07-20T00:31:55.421Z,93.91
2017-07-20T00:32:55.905Z,94.2
2017-07-20T00:33:54.700Z,93.52
2017-07-20T00:34:48.881Z,93.33
2017-07-20T00:35:56.249Z,93.14
2017-07-20T00:36:55.030Z,92.66
2017-07-20T00:37:56.033Z,92.47
2017-07-20T00:38:57.415Z,93.81
2017-07-20T00:39:48.891Z,93.91
2017-07-20T00:40:54.093Z,93.81
2017-07-20T00:41:48.890Z,93.91
2017-07-20T00:42:49.931Z,94.87
2017-07-20T00:43:48.566Z,93.91
2017-07-20T00:44:48.573Z,94.01
2017-07-20T00:45:54.231Z,93.43
2017-07-20T00:46:48.915Z,94.06
2017-07-20T00:47:48.918Z,93.87
2017-07-20T00:48:48.584Z,93.57
2017-07-20T00:49:48.588Z,93.48
2017-07-20T00:50:54.749Z,94.64
2017-07-20T00:51:48.602Z,94.15
2017-07-20T00:52:48.941Z,94.73
2017-07-20T00:53:48.601Z,94.64
2017-07-20T00:54:48.605Z,95.02
2017-07-20T00:55:54.983Z,95.4
2017-07-20T00:56:48.615Z,94.64
2017-07-20T00:57:48.861Z,94.73
2017-07-20T00:58:48.616Z,94.44
2017-07-20T00:59:48.953Z,95.69
2017-07-20T01:00:53.382Z,95.4
2017-07-20T01:01:48.966Z,95.79
2017-07-20T01:02:49.663Z,95.4
2017-07-20T01:03:48.630Z,94.73
2017-07-20T01:04:48.638Z,95.21
2017-07-20T01:10:23.676Z,96.56
2017-07-20T01:11:15.570Z,96.37
2017-07-20T01:12:15.898Z,96.46
2017-07-20T01:13:15.574Z,96.27
2017-07-20T01:14:15.576Z,96.27
2017-07-20T01:16:15.583Z,97.33
2017-07-20T01:17:15.587Z,97.42
2017-07-20T01:18:15.970Z,97.72
2017-07-20T01:19:15.921Z,97.14
2017-07-20T01:20:24.079Z,96.66
2017-07-20T01:21:15.924Z,96.56
2017-07-20T01:22:15.599Z,97.24
2017-07-20T01:23:15.943Z,97.14
2017-07-20T01:24:15.958Z,98.19
2017-07-20T01:25:22.334Z,97.86
2017-07-20T01:26:16.006Z,98.54
2017-07-20T01:27:15.614Z,97.76
2017-07-20T01:28:16.224Z,98.72
2017-07-20T01:29:16.344Z,98.24
2017-07-20T01:30:23.658Z,98.34
2017-07-20T01:31:15.816Z,98.54
2017-07-20T01:32:15.635Z,98.05
2017-07-20T01:33:15.629Z,97.96
2017-07-20T01:34:15.662Z,98.72
2017-07-20T01:35:23.832Z,99.21
2017-07-20T01:36:15.979Z,98.63
2017-07-20T01:37:15.980Z,98.82
2017-07-20T01:38:15.980Z,98.72
2017-07-20T01:39:15.647Z,98.34
2017-07-20T01:40:23.853Z,98.92
2017-07-20T01:41:15.986Z,98.63
2017-07-20T01:42:15.657Z,97.62
2017-07-20T01:43:15.997Z,98.19
2017-07-20T01:44:15.686Z,97.81
2017-07-20T01:45:22.991Z,96.94
2017-07-20T01:46:16.985Z,97.52
2017-07-20T01:47:15.678Z,97.33
2017-07-20T01:48:15.676Z,97.52
2017-07-20T01:49:15.687Z,97.52
2017-07-20T01:50:23.958Z,98.1
2017-07-20T01:51:15.686Z,97.96
2017-07-20T01:52:16.114Z,97.52
2017-07-20T01:53:15.733Z,97.33
2017-07-20T01:54:16.206Z,96.17
2017-07-20T01:55:23.834Z,95.98
2017-07-20T01:56:16.268Z,96.27
2017-07-20T01:57:16.272Z,96.08
2017-07-20T01:58:15.857Z,96.37
2017-07-20T01:59:16.305Z,96.85
2017-07-20T02:00:23.319Z,96.56
2017-07-20T02:01:16.704Z,96.56
2017-07-20T02:02:16.472Z,96.37
2017-07-20T02:03:16.219Z,95.89
2017-07-20T02:04:16.388Z,95.89
2017-07-20T02:05:21.905Z,95.89
2017-07-20T02:07:20.772Z,96.46
2017-07-20T02:08:20.887Z,96.27
2017-07-20T02:09:21.824Z,96.46
2017-07-20T02:10:21.488Z,96.08
2017-07-20T02:11:22.498Z,95.98
2017-07-20T02:12:26.427Z,96.46
2017-07-20T02:13:21.162Z,96.66
2017-07-20T02:14:22.268Z,96.85
2017-07-20T02:15:21.659Z,97.24
2017-07-20T02:16:20.862Z,97.33
2017-07-20T02:17:15.934Z,97.33
2017-07-20T02:18:15.777Z,97.33
2017-07-20T02:19:15.772Z,96.8
2017-07-20T02:20:24.276Z,96.75
2017-07-20T02:21:16.116Z,96.94
2017-07-20T02:22:16.128Z,97.24
2017-07-20T02:23:16.117Z,97.24
2017-07-20T02:24:15.846Z,97.52
2017-07-20T02:25:23.014Z,97.62
2017-07-20T02:26:15.804Z,97.72
2017-07-20T02:27:16.130Z,97.72
2017-07-20T02:28:16.350Z,97.91
2017-07-20T02:29:16.136Z,97.91
2017-07-20T02:30:23.566Z,98.1
2017-07-20T02:31:16.156Z,98.1
2017-07-20T02:32:16.145Z,98.1
2017-07-20T02:33:15.927Z,97.72
2017-07-20T02:34:15.821Z,97.33
2017-07-20T02:35:22.890Z,97.42
2017-07-20T02:36:15.836Z,96.46
2017-07-20T02:37:15.838Z,96.42
2017-07-20T02:38:16.220Z,95.94
2017-07-20T02:39:15.842Z,95.45
2017-07-20T02:40:24.477Z,95.64
2017-07-20T02:41:15.832Z,95.64
2017-07-20T02:42:16.155Z,94.87
2017-07-20T02:43:15.873Z,95.07
2017-07-20T02:44:15.830Z,94.68
2017-07-20T02:45:24.730Z,94.15
2017-07-20T02:46:16.164Z,94.82
2017-07-20T02:47:15.841Z,94.54
2017-07-20T02:48:16.475Z,93.62
2017-07-20T02:49:15.849Z,92.85
2017-07-20T02:50:23.323Z,93.09
2017-07-20T02:51:16.239Z,92.56
2017-07-20T02:52:16.221Z,92.76
2017-07-20T06:47:26.719Z,77.76
2017-07-20T06:48:16.711Z,77.38
2017-07-20T06:49:17.477Z,75.64
2017-07-20T06:50:23.052Z,75.54
2017-07-20T06:51:16.801Z,74.87
2017-07-20T06:52:16.727Z,74.68
2017-07-20T06:53:17.110Z,74.38
2017-07-20T06:54:16.791Z,74.19
2017-07-20T06:55:23.931Z,72.97
2017-07-20T06:56:17.089Z,72.49
2017-07-20T06:57:17.083Z,71.75
2017-07-20T06:58:17.141Z,71.17
2017-07-20T06:59:17.086Z,70.34
2017-07-20T07:00:25.004Z,69.95
2017-07-20T07:01:16.801Z,69.46
2017-07-20T07:02:17.107Z,69.75
2017-07-20T07:03:21.360Z,69.37
2017-07-20T07:04:16.793Z,68.98
2017-07-20T07:05:25.632Z,69.37
2017-07-20T07:06:17.121Z,68.79
2017-07-20T07:07:17.124Z,68.88
2017-07-20T07:08:17.133Z,68.63
2017-07-20T07:09:17.086Z,68.43
2017-07-20T07:10:23.215Z,68.15
2017-07-20T07:11:18.737Z,67.76
2017-07-20T07:12:17.154Z,67.69
2017-07-20T07:13:17.614Z,67.79
2017-07-20T07:14:17.220Z,67.11
2017-07-20T07:15:21.407Z,66.82
2017-07-20T07:16:20.482Z,66.63
2017-07-20T07:17:17.440Z,66.34
2017-07-20T07:18:17.643Z,66.53
2017-07-20T07:19:17.492Z,66.24
2017-07-20T07:20:26.130Z,66.53
2017-07-20T07:21:17.202Z,67.02
2017-07-20T07:22:16.878Z,65.27
2017-07-20T07:23:16.886Z,65.08
2017-07-20T07:24:16.895Z,65.47
2017-07-20T07:25:25.188Z,64.72
2017-07-20T07:26:17.238Z,63.85
2017-07-20T07:27:17.228Z,63.07
2017-07-20T07:28:17.082Z,62.23
2017-07-20T07:29:16.934Z,61.19
2017-07-20T07:30:23.700Z,59.16
2017-07-20T07:31:16.922Z,57.93
2017-07-20T07:32:16.996Z,58.9
2017-07-20T07:33:16.935Z,59.48
2017-07-20T07:34:17.274Z,59.48
2017-07-20T07:35:23.992Z,59.38
2017-07-20T07:36:17.348Z,59
2017-07-20T07:37:16.958Z,58.93
2017-07-20T07:38:16.964Z,58.15
2017-07-20T07:39:17.028Z,57.47
2017-07-20T07:40:25.795Z,56.98
2017-07-20T07:41:16.983Z,56.79
2017-07-20T07:42:17.624Z,55.24
2017-07-20T07:43:16.994Z,55.53
2017-07-20T07:44:17.049Z,56.21
2017-07-20T07:45:25.346Z,56.79
2017-07-20T07:46:17.337Z,55.33
2017-07-20T07:47:17.347Z,55.04
2017-07-20T07:48:17.036Z,55.24
2017-07-20T07:49:17.667Z,55.14
2017-07-20T07:50:25.595Z,55.79
2017-07-20T07:51:17.054Z,56.5
2017-07-20T07:52:17.380Z,55.89
2017-07-20T07:53:17.055Z,56.11
2017-07-20T07:54:17.513Z,55.73
2017-07-20T07:55:24.202Z,56.11
2017-07-20T07:56:17.077Z,55.04
2017-07-20T07:57:17.460Z,54.27
2017-07-20T07:58:17.473Z,55.43
2017-07-20T07:59:17.145Z,54.75
2017-07-20T08:00:22.407Z,54.72
2017-07-20T08:01:17.457Z,55.04
2017-07-20T08:02:17.464Z,56.11
2017-07-20T08:03:17.121Z,56.82
2017-07-20T08:04:17.952Z,56.52
2017-07-20T08:05:24.481Z,56.04
2017-07-20T08:06:17.135Z,55.68
2017-07-20T08:07:17.152Z,54.42
2017-07-20T08:08:17.244Z,54.42
2017-07-20T08:09:17.538Z,54.71
2017-07-20T08:10:24.886Z,54.03
2017-07-20T08:11:17.499Z,54.13
2017-07-20T08:12:17.177Z,54.03
2017-07-20T08:13:17.510Z,54.13
2017-07-20T08:14:17.191Z,54.8
2017-07-20T08:15:24.353Z,54.61
2017-07-20T08:16:17.201Z,54.71
2017-07-20T08:17:17.532Z,54.42
2017-07-20T08:18:17.216Z,53.74
2017-07-20T08:19:17.220Z,52.96
2017-07-20T08:20:25.782Z,53.16
2017-07-20T08:21:17.559Z,52.19
2017-07-20T08:22:17.596Z,52.37
2017-07-20T08:23:17.245Z,51.89
2017-07-20T08:24:17.254Z,51.5
2017-07-20T08:25:24.904Z,51.72
2017-07-20T08:26:17.270Z,49.95
2017-07-20T08:27:17.627Z,51.4
2017-07-20T08:28:17.611Z,52.09
2017-07-20T08:29:17.615Z,51.67
2017-07-20T08:30:27.000Z,51.87
2017-07-20T08:31:17.303Z,52.45
2017-07-20T08:32:17.633Z,53.03
2017-07-20T08:33:17.635Z,53.71
2017-07-20T08:34:17.647Z,54.29
2017-07-20T08:35:23.757Z,52.74
2017-07-20T08:36:17.331Z,52.84
2017-07-20T08:37:17.661Z,54.36
2017-07-20T08:38:17.360Z,54.07
2017-07-20T08:39:17.348Z,54.85
2017-07-20T08:51:18.593Z,60.88
2017-07-20T08:52:18.721Z,60.49
2017-07-20T08:53:18.602Z,60.88
2017-07-20T08:54:18.597Z,62.98
2017-07-20T08:55:18.601Z,63.07
2017-07-20T08:56:18.609Z,63.46
2017-07-20T08:57:18.613Z,64.24
2017-07-20T08:58:18.625Z,65.37
2017-07-20T08:59:18.625Z,65.27
2017-07-20T09:00:18.630Z,66.43
2017-07-20T09:01:18.334Z,67.11
2017-07-20T09:02:18.796Z,68.37
2017-07-20T09:03:18.344Z,67.98
2017-07-20T09:04:18.654Z,69.05
2017-07-20T09:05:18.660Z,66.92
2017-07-20T09:06:23.638Z,66.43
2017-07-20T09:07:18.664Z,67.95
2017-07-20T09:08:18.668Z,68.63
2017-07-20T09:09:18.675Z,68.82
2017-07-20T09:10:18.378Z,67.27
2017-07-20T09:11:18.692Z,67.85
2017-07-20T09:12:18.389Z,69.5
2017-07-20T09:13:18.703Z,67.91
2017-07-20T09:14:18.718Z,69.27
2017-07-20T09:15:18.717Z,69.62
2017-07-20T09:16:18.715Z,71.66
2017-07-20T09:17:18.721Z,70.1
2017-07-20T09:18:18.731Z,71.33
2017-07-20T09:19:18.730Z,72.2
2017-07-20T09:20:18.733Z,72.1
2017-07-20T09:21:18.732Z,73.42
2017-07-20T09:22:18.737Z,75.45
2017-07-20T09:23:18.746Z,77.57
2017-07-20T09:24:18.756Z,75.45
2017-07-20T09:25:18.767Z,78.44
2017-07-20T09:26:18.758Z,77.53
2017-07-20T09:27:18.765Z,78.41
2017-07-20T09:28:18.794Z,78.69
2017-07-20T09:29:18.474Z,79.17
2017-07-20T09:30:18.786Z,81.35
2017-07-20T09:31:18.480Z,80.58
2017-07-20T09:32:18.789Z,82.32
2017-07-20T09:33:18.794Z,82.42
2017-07-20T09:34:18.799Z,83.19
2017-07-20T09:35:18.799Z,83.58
2017-07-20T09:36:18.802Z,83.19
2017-07-20T09:37:18.806Z,84.89
2017-07-20T09:38:18.807Z,84.01
2017-07-20T09:39:18.817Z,85.08
2017-07-20T09:40:18.819Z,84.69
2017-07-20T09:41:18.822Z,85.27
2017-07-20T09:42:18.822Z,85.46
2017-07-20T09:43:18.837Z,85.66
2017-07-20T09:44:18.833Z,86.43
2017-07-20T09:45:18.839Z,86.04
2017-07-20T09:46:18.841Z,87.01
2017-07-20T09:47:18.842Z,87.59
2017-07-20T09:48:18.848Z,86.52
2017-07-20T09:49:18.849Z,86.24
2017-07-20T09:50:18.866Z,86.28
2017-07-20T09:51:18.560Z,86.82
2017-07-20T09:52:18.561Z,87.68
2017-07-20T09:53:18.866Z,87.78
2017-07-20T09:54:18.574Z,88.26
2017-07-20T09:55:18.883Z,89.42
2017-07-20T09:56:18.887Z,88.93
2017-07-20T09:57:18.887Z,88.93
2017-07-20T09:58:18.886Z,89.03
2017-07-20T09:59:18.897Z,89.51
2017-07-20T10:00:18.598Z,87.78
2017-07-20T10:01:18.901Z,87.78
2017-07-20T10:02:18.909Z,87.88
2017-07-20T10:03:18.912Z,87.88
2017-07-20T10:04:18.608Z,86.14
2017-07-20T10:05:18.918Z,87.4
2017-07-20T10:06:18.917Z,87.88
2017-07-20T10:07:18.920Z,86.82
2017-07-20T10:08:18.926Z,88.75
2017-07-20T10:09:18.628Z,88.12
2017-07-20T10:10:18.935Z,87.83
2017-07-20T10:11:18.938Z,88.22
2017-07-20T10:12:18.942Z,89.47
2017-07-20T10:13:18.945Z,90.63
2017-07-20T10:14:18.950Z,88.99
2017-07-20T10:15:18.952Z,89.37
2017-07-20T10:16:18.956Z,89.47
2017-07-20T10:17:18.963Z,89.76
2017-07-20T10:18:18.969Z,89.95
2017-07-20T10:19:18.968Z,90.92
2017-07-20T10:20:19.092Z,89.67
2017-07-20T10:21:18.987Z,89.95
2017-07-20T10:22:19.035Z,89.67
2017-07-20T10:23:18.983Z,89.67
2017-07-20T10:24:19.005Z,89.37
2017-07-20T10:25:19.130Z,89.28
2017-07-20T10:26:19.002Z,88.6
2017-07-20T10:27:18.705Z,88.89
2017-07-20T10:28:19.008Z,89.57
2017-07-20T10:29:19.002Z,88.99
2017-07-20T10:30:19.006Z,89.86
2017-07-20T10:31:19.014Z,89.67
2017-07-20T10:32:18.714Z,90.19
2017-07-20T10:33:19.021Z,89.71
2017-07-20T10:34:19.032Z,88.45
2017-07-20T10:35:18.753Z,89.23
2017-07-20T10:36:19.035Z,89.03
2017-07-20T10:37:19.250Z,89.61
2017-07-20T10:38:19.050Z,89.51
2017-07-20T10:39:19.047Z,89.13
2017-07-20T10:40:19.047Z,88.45
2017-07-20T10:41:19.060Z,88.26
2017-07-20T10:42:19.057Z,89.47
2017-07-20T10:43:19.063Z,89.86
2017-07-20T10:44:18.762Z,90.53
2017-07-20T10:45:19.081Z,90.82
2017-07-20T10:46:19.080Z,90.44
2017-07-20T10:47:19.079Z,88.7
2017-07-20T10:48:18.778Z,89.57
2017-07-20T10:49:19.085Z,91.2
2017-07-20T10:50:18.798Z,91.11
2017-07-20T10:51:19.103Z,91.78
2017-07-20T10:52:19.151Z,91.2
2017-07-20T10:53:18.799Z,91.6
2017-07-20T10:54:19.113Z,90.63
2017-07-20T10:55:19.110Z,90.53
2017-07-20T10:56:19.140Z,90.92
2017-07-20T10:57:19.113Z,91.2
2017-07-20T10:58:19.123Z,91.11
2017-07-20T10:59:19.125Z,91.98
2017-07-20T11:00:19.125Z,92.17
2017-07-20T11:01:19.126Z,92.17
2017-07-20T11:02:19.132Z,91.4
2017-07-20T11:03:19.145Z,92.17
2017-07-20T11:04:19.145Z,92.46
2017-07-20T11:05:19.149Z,92.08
2017-07-20T11:06:19.145Z,92.22
2017-07-20T11:07:19.449Z,92.99
2017-07-20T11:08:19.162Z,93.04
2017-07-20T11:09:19.157Z,93.13
2017-07-20T11:10:18.858Z,94.15
2017-07-20T11:11:19.166Z,94.63
2017-07-20T11:12:19.169Z,95.98
2017-07-20T11:13:19.171Z,95.4
2017-07-20T11:14:19.181Z,94.44
2017-07-20T11:15:18.880Z,94.24
2017-07-20T11:16:19.182Z,94.92
2017-07-20T11:17:19.185Z,95.02
2017-07-20T11:18:19.189Z,94.24
2017-07-20T11:19:19.193Z,93.96
2017-07-20T11:20:19.195Z,94.06
2017-07-20T11:21:19.199Z,95.69
2017-07-20T11:22:21.008Z,95.55
2017-07-20T11:23:19.208Z,95.5
2017-07-20T11:24:18.908Z,95.4
2017-07-20T11:25:19.218Z,94.82
2017-07-20T11:26:19.220Z,95.59
2017-07-20T11:27:19.217Z,95.5
2017-07-20T11:28:19.233Z,94.73
2017-07-20T11:29:19.230Z,94.54
2017-07-20T11:30:19.230Z,94.73
2017-07-20T11:31:19.235Z,94.87
2017-07-20T11:32:19.239Z,94.59
2017-07-20T11:33:19.252Z,94.92
2017-07-20T11:34:19.251Z,95.98
2017-07-20T11:35:19.252Z,95.07
2017-07-20T11:36:19.256Z,96.8
2017-07-20T11:37:22.409Z,97.38
2017-07-20T11:38:19.260Z,95.64
2017-07-20T11:39:19.265Z,95.94
2017-07-20T11:40:19.277Z,96.42
2017-07-20T11:41:19.272Z,95.21
2017-07-20T11:42:19.273Z,95.98
2017-07-20T11:43:18.976Z,95.98
2017-07-20T11:44:19.283Z,94.92
2017-07-20T11:45:19.287Z,94.29
2017-07-20T11:46:19.295Z,93.13
2017-07-20T11:47:19.293Z,93.23
2017-07-20T11:48:19.298Z,94
2017-07-20T11:49:19.300Z,92.46
2017-07-20T11:50:19.302Z,91.74
2017-07-20T11:51:19.308Z,92.02
2017-07-20T11:52:19.312Z,91.35
2017-07-20T11:53:19.314Z,91.06
2017-07-20T11:54:19.320Z,90.81
2017-07-20T11:55:19.325Z,88.98
2017-07-20T11:56:19.330Z,88.02
2017-07-20T12:19:39.495Z,87.81
2017-07-20T12:20:39.807Z,87.23
2017-07-20T12:21:39.813Z,86.85
2017-07-20T12:22:39.830Z,86.9
2017-07-20T12:23:39.819Z,88.1
2017-07-20T12:24:39.522Z,88.78
2017-07-20T12:25:39.524Z,87.52
2017-07-20T12:26:39.845Z,88.49
2017-07-20T12:27:39.842Z,88.49
2017-07-20T12:28:39.548Z,86.94
2017-07-20T12:29:39.853Z,85.21
2017-07-20T12:30:39.855Z,84.91
2017-07-20T12:31:39.873Z,84.63
2017-07-20T12:32:39.879Z,83.27
2017-07-20T12:33:39.574Z,82.98
2017-07-20T12:34:39.919Z,83.18
2017-07-20T12:35:39.875Z,84.43
2017-07-20T12:36:39.880Z,83.31
2017-07-20T12:37:39.582Z,84.77
2017-07-20T12:38:39.885Z,85.15
2017-07-20T12:39:39.904Z,84.03
2017-07-20T12:40:39.900Z,83.16
2017-07-20T12:41:39.900Z,82.87
2017-07-20T12:42:39.905Z,82.97
2017-07-20T12:43:39.912Z,82.39
2017-07-20T12:44:39.913Z,82.39
2017-07-20T12:45:39.928Z,82.2
2017-07-20T12:46:39.931Z,82.06
2017-07-20T12:47:39.931Z,82.25
2017-07-20T12:48:39.943Z,82.1
2017-07-20T12:49:40.947Z,82.87
2017-07-20T12:50:39.948Z,82.39
2017-07-20T12:51:39.952Z,82.1
2017-07-20T12:52:39.962Z,82.04
2017-07-20T12:53:39.960Z,81.07
2017-07-20T12:54:39.972Z,81.07
2017-07-20T12:55:39.972Z,80.98
2017-07-20T12:56:39.676Z,80.3
2017-07-20T12:57:39.992Z,80.4
2017-07-20T12:58:39.984Z,79.72
2017-07-20T12:59:39.992Z,79.04
2017-07-20T13:00:40.018Z,79.24
2017-07-20T13:01:40.007Z,79.27
2017-07-20T13:02:39.709Z,78.41
2017-07-20T13:03:40.013Z,76.86
2017-07-20T13:04:40.075Z,78.08
2017-07-20T13:05:40.022Z,78.56
2017-07-20T13:06:40.036Z,77.24
2017-07-20T13:07:40.039Z,76.86
2017-07-20T13:08:40.044Z,76.56
2017-07-20T13:09:40.048Z,75.21
2017-07-20T13:10:40.051Z,75.11
2017-07-20T13:11:40.095Z,75.6
2017-07-20T13:12:40.068Z,75.4
2017-07-20T13:13:39.778Z,75.21
2017-07-20T13:14:40.075Z,77.34
2017-07-20T13:15:40.078Z,75.63
2017-07-20T13:16:40.081Z,73.89
2017-07-20T13:17:40.093Z,74.28
2017-07-20T13:18:40.093Z,76.31
2017-07-20T13:19:40.301Z,73.69
2017-07-20T13:20:40.112Z,73.99
2017-07-20T13:21:40.116Z,74.28
2017-07-20T13:22:40.122Z,74.86
2017-07-20T13:23:40.125Z,74.28
2017-07-20T13:24:40.139Z,75.6
2017-07-20T13:25:40.135Z,76.99
2017-07-20T13:26:40.144Z,77.67
2017-07-20T13:27:39.848Z,76.41
2017-07-20T13:28:40.154Z,75.44
2017-07-20T13:29:40.159Z,75.09
2017-07-20T13:30:40.164Z,75.28
2017-07-20T13:31:40.171Z,74.22
2017-07-20T13:32:40.178Z,73.05
2017-07-20T13:33:39.884Z,72.96
2017-07-20T13:34:40.235Z,73.54
2017-07-20T13:35:40.200Z,74.02
2017-07-20T13:36:40.202Z,74.38
2017-07-20T13:37:40.206Z,73.6
2017-07-20T13:38:40.209Z,72.73
2017-07-20T13:39:40.216Z,73.11
2017-07-20T13:40:40.221Z,73.6
2017-07-20T13:41:39.923Z,74.18
2017-07-20T13:42:40.231Z,73.69
2017-07-20T13:43:40.242Z,74.38
2017-07-20T13:44:40.242Z,74.96
2017-07-20T13:45:39.963Z,73.69
2017-07-20T13:46:40.266Z,74.57
2017-07-20T13:47:39.965Z,75.15
2017-07-20T13:48:40.272Z,75.44
2017-07-20T13:49:40.320Z,74.86
2017-07-20T13:50:40.279Z,75.05
2017-07-20T13:51:40.279Z,74.66
2017-07-20T13:52:40.285Z,74.47
2017-07-20T13:53:39.996Z,74.38
2017-07-20T13:54:40.297Z,73.31
2017-07-20T13:55:40.312Z,75.44
2017-07-20T13:56:40.310Z,73.02
2017-07-20T13:57:40.313Z,72.92
2017-07-20T13:58:40.331Z,72.89
2017-07-20T13:59:40.331Z,73.47
2017-07-20T14:00:41.125Z,73.5
2017-07-20T14:01:40.949Z,72.83
2017-07-20T14:02:40.342Z,72.15
2017-07-20T14:03:40.343Z,71.92
2017-07-20T14:04:40.098Z,72.4
2017-07-20T14:05:40.353Z,72.3
2017-07-20T14:06:40.360Z,72.6
2017-07-20T14:07:40.367Z,72.02
2017-07-20T14:08:40.371Z,72.92
2017-07-20T14:09:40.377Z,72.5
2017-07-20T14:10:40.386Z,73.02
2017-07-20T14:11:40.086Z,72.24
2017-07-20T14:12:40.407Z,71.86
2017-07-20T14:13:40.397Z,72.34
2017-07-20T14:14:40.405Z,71.08
2017-07-20T14:15:40.412Z,71.66
2017-07-20T14:16:40.124Z,70.5
2017-07-20T14:17:40.130Z,71.56
2017-07-20T14:18:40.436Z,71.22
2017-07-20T14:19:44.341Z,69.67
2017-07-20T14:20:40.433Z,70.34
2017-07-20T14:21:40.445Z,70.54
2017-07-20T14:22:40.444Z,70.34
2017-07-20T14:23:40.452Z,69.95
2017-07-20T14:24:40.171Z,68.6
2017-07-20T14:25:40.459Z,68.89
2017-07-20T14:26:40.470Z,68.6
2017-07-20T14:27:40.169Z,68.89
2017-07-20T14:28:40.478Z,69.57
2017-07-20T14:29:40.480Z,70.34
2017-07-20T14:30:40.486Z,70.05
2017-07-20T14:31:40.491Z,70.73
2017-07-20T14:32:40.203Z,70.83
2017-07-20T14:33:40.507Z,70.25
2017-07-20T14:34:40.510Z,71.02
2017-07-20T14:35:40.528Z,71.22
2017-07-20T14:36:40.526Z,70.98
2017-07-20T14:37:40.528Z,70.5
2017-07-20T14:38:40.529Z,70.15
2017-07-20T14:39:40.535Z,70.21
2017-07-20T14:40:40.542Z,70.25
2017-07-20T14:41:40.546Z,71.18
2017-07-20T14:42:40.552Z,71.47
2017-07-20T14:43:40.557Z,72.53
2017-07-20T14:44:40.563Z,71.08
2017-07-20T14:45:40.570Z,72.38
2017-07-20T14:46:40.571Z,73.05
2017-07-20T14:47:40.587Z,73.05
2017-07-20T14:48:40.296Z,72.57
2017-07-20T14:49:40.596Z,73.35
2017-07-20T14:50:40.291Z,73.93
2017-07-20T14:51:40.598Z,73.41
2017-07-20T14:52:40.299Z,75.15
2017-07-20T14:53:40.605Z,76.46
2017-07-20T14:54:40.616Z,76.37
2017-07-20T14:55:40.616Z,77.82
2017-07-20T14:56:40.621Z,78.75
2017-07-20T14:57:40.628Z,79.04
2017-07-20T14:58:40.635Z,78.46
2017-07-20T14:59:40.338Z,78.85
2017-07-20T15:00:40.645Z,79.72
2017-07-20T15:01:40.647Z,79.91
2017-07-20T15:02:40.659Z,80.2
2017-07-20T15:03:40.658Z,80.88
2017-07-20T15:04:40.661Z,81.02
2017-07-20T15:05:43.174Z,79.47
2017-07-20T15:06:40.671Z,79.37
2017-07-20T15:07:40.678Z,78.5
2017-07-20T15:08:40.679Z,78.02
2017-07-20T15:09:40.689Z,78.21
2017-07-20T15:10:40.687Z,78.02
2017-07-20T15:11:40.407Z,77.44
2017-07-20T15:12:40.701Z,77.09
2017-07-20T15:13:40.710Z,76.12
2017-07-20T15:14:40.420Z,76.51
2017-07-20T15:15:40.713Z,75.54
2017-07-20T15:16:40.719Z,74.57
2017-07-20T15:17:40.722Z,74.99
2017-07-20T15:18:40.730Z,74.6
2017-07-20T15:19:40.740Z,75.48
2017-07-20T15:20:43.842Z,75.38
2017-07-20T15:21:40.756Z,73.35
2017-07-20T15:22:40.747Z,71.8
2017-07-20T15:23:40.451Z,72.09
2017-07-20T15:24:40.759Z,72.09
2017-07-20T15:25:40.763Z,71.5
2017-07-20T15:26:40.769Z,70.47
2017-07-20T15:27:40.770Z,69.31
2017-07-20T15:28:40.791Z,69.31
2017-07-20T15:29:40.788Z,67.85
2017-07-20T15:30:40.792Z,68.54
2017-07-20T15:31:40.803Z,67.69
2017-07-20T15:32:40.506Z,67.95
2017-07-20T15:33:40.809Z,68.82
2017-07-20T15:34:40.815Z,69.41
2017-07-20T15:35:40.820Z,69.31
2017-07-20T15:36:40.823Z,68.82
2017-07-20T15:37:40.835Z,69.12
2017-07-20T15:38:40.836Z,68.73
2017-07-20T15:39:40.540Z,69.12
2017-07-20T15:40:40.851Z,69.41
2017-07-20T15:41:40.552Z,68.73
2017-07-20T15:42:40.857Z,68.82
2017-07-20T15:43:40.865Z,68.05
2017-07-20T15:44:40.861Z,68.34
2017-07-20T15:45:40.872Z,68.92
2017-07-20T15:46:40.884Z,68.92
2017-07-20T15:47:40.888Z,69.41
2017-07-20T15:48:40.890Z,69.99
2017-07-20T15:49:40.610Z,69.95
2017-07-20T15:50:40.900Z,70.34
2017-07-20T15:51:42.908Z,69.37
2017-07-20T15:52:40.912Z,69.18
2017-07-20T15:53:40.625Z,68.89
2017-07-20T15:54:40.922Z,69.57
2017-07-20T15:55:40.930Z,68.99
2017-07-20T15:56:40.941Z,68.99
2017-07-20T15:57:40.936Z,68.7
2017-07-20T15:58:40.941Z,69.08
2017-07-20T15:59:40.961Z,69.57
2017-07-20T16:00:41.412Z,70.44
2017-07-20T16:01:40.961Z,69.95
2017-07-20T16:02:40.962Z,71.22
2017-07-20T16:03:40.972Z,71.8
2017-07-20T16:04:40.681Z,71.66
2017-07-20T16:05:40.981Z,71.76
2017-07-20T16:06:41.038Z,72.24
2017-07-20T16:07:40.991Z,72.63
2017-07-20T16:08:41.000Z,72.92
2017-07-20T16:09:41.020Z,73.11
2017-07-20T16:10:41.009Z,73.5
2017-07-20T16:11:41.008Z,73.75
2017-07-20T16:12:41.017Z,73.6
2017-07-20T16:13:40.722Z,74.34
2017-07-20T16:14:41.026Z,73.66
2017-07-20T16:15:41.035Z,73.47
2017-07-20T16:16:41.036Z,74.15
2017-07-20T16:17:41.041Z,74.43
2017-07-20T16:18:41.051Z,77.82
2017-07-20T16:19:41.054Z,78.75
2017-07-20T16:20:41.054Z,79.24
2017-07-20T16:21:42.266Z,80.11
2017-07-20T16:22:41.068Z,81.07
2017-07-20T16:23:41.072Z,81.23
2017-07-20T16:24:41.084Z,81.42
2017-07-20T16:25:41.083Z,82.78
2017-07-20T16:26:41.341Z,84.8
2017-07-20T16:27:41.088Z,79.58
2017-07-20T16:28:41.099Z,85.93
2017-07-20T16:29:41.098Z,83.37
2017-07-20T16:30:41.102Z,85.94
2017-07-20T16:31:41.110Z,86.71
2017-07-20T16:32:41.336Z,87.15
2017-07-20T16:33:41.114Z,87.53
2017-07-20T16:34:41.122Z,89.17
2017-07-20T16:35:41.127Z,91.3
2017-07-20T16:36:41.129Z,92.16
2017-07-20T16:37:41.147Z,92.41
2017-07-20T16:38:40.834Z,93.9
2017-07-20T16:39:41.189Z,93.8
2017-07-20T16:40:41.491Z,94.77
2017-07-20T16:41:41.158Z,94.77
2017-07-20T16:42:41.153Z,94.2
2017-07-20T16:43:41.171Z,93.95
2017-07-20T16:44:41.157Z,94.43
2017-07-20T16:45:41.171Z,94.43
2017-07-20T16:46:40.873Z,91.19
2017-07-20T16:47:41.172Z,89.75
2017-07-20T16:48:41.193Z,87.08
2017-07-20T16:49:41.181Z,86.79
2017-07-20T16:50:41.186Z,86.02
2017-07-20T16:51:40.891Z,85.19
2017-07-20T16:52:41.197Z,85.68
2017-07-20T16:53:41.216Z,85.19
2017-07-20T16:54:41.211Z,85.33
2017-07-20T16:55:41.215Z,85.33
2017-07-20T16:56:41.219Z,84.46
2017-07-20T16:57:41.227Z,83.53
2017-07-20T16:58:41.224Z,83.15
2017-07-20T16:59:41.241Z,84.5
2017-07-20T17:00:41.237Z,82.32
2017-07-20T17:01:41.239Z,79.22
2017-07-20T17:02:41.243Z,79.37
2017-07-20T17:03:40.950Z,82.47
2017-07-20T17:04:41.254Z,82.86
2017-07-20T17:05:41.288Z,81.7
2017-07-20T17:06:41.263Z,79.02
2017-07-20T17:07:41.282Z,78.34
2017-07-20T17:08:41.292Z,78.31
2017-07-20T17:09:41.005Z,79.02
2017-07-20T17:10:41.113Z,79.12
2017-07-20T17:11:41.010Z,79.41
2017-07-20T17:12:41.296Z,79.12
2017-07-20T17:13:41.302Z,78.44
2017-07-20T17:14:41.007Z,78.89
2017-07-20T17:15:41.311Z,78.99
2017-07-20T17:16:41.342Z,78.94
2017-07-20T17:17:41.325Z,79.43
2017-07-20T17:18:41.329Z,79.62
2017-07-20T17:19:41.030Z,79.33
2017-07-20T17:20:41.439Z,79.33
2017-07-20T17:21:41.342Z,79.62
2017-07-20T17:22:42.050Z,79.62
2017-07-20T17:23:41.358Z,80.69
2017-07-20T17:24:41.434Z,81.62
2017-07-20T17:25:41.364Z,81.71
2017-07-20T17:26:41.367Z,80.74
2017-07-20T17:27:41.077Z,81.09
2017-07-20T17:28:41.381Z,82.83
2017-07-20T17:29:41.408Z,82.93